sensor_id;sensor_type;location;lat;lon;timestamp;temperature;humidity
15690;DHT22;7945;48.816;11.506;2023-08-08T00:00:07;13.50;99.90
15690;DHT22;7945;48.816;11.506;2023-08-08T00:02:35;13.50;99.90
15690;DHT22;7945;48.816;11.506;2023-08-08T00:05:03;13.40;99.90
15690;DHT22;7945;48.816;11.506;2023-08-08T00:07:31;13.40;99.90
15690;DHT22;7945;48.816;11.506;2023-08-08T00:09:58;13.40;99.90
15690;DHT22;7945;48.816;11.506;2023-08-08T00:12:24;13.40;99.90
15690;DHT22;7945;48.816;11.506;2023-08-08T00:14:51;13.30;99.90
15690;DHT22;7945;48.816;11.506;2023-08-08T00:17:18;13.30;99.90
15690;DHT22;7945;48.816;11.506;2023-08-08T00:19:45;13.30;99.90
15690;DHT22;7945;48.816;11.506;2023-08-08T00:22:11;13.20;99.90
15690;DHT22;7945;48.816;11.506;2023-08-08T00:24:39;13.20;99.90
15690;DHT22;7945;48.816;11.506;2023-08-08T00:27:06;13.20;99.90
15690;DHT22;7945;48.816;11.506;2023-08-08T00:29:33;13.20;99.90
15690;DHT22;7945;48.816;11.506;2023-08-08T00:32:00;13.20;99.90
15690;DHT22;7945;48.816;11.506;2023-08-08T00:34:26;13.20;99.90
15690;DHT22;7945;48.816;11.506;2023-08-08T00:36:53;13.20;99.90
15690;DHT22;7945;48.816;11.506;2023-08-08T00:39:20;13.20;99.90
15690;DHT22;7945;48.816;11.506;2023-08-08T00:41:48;13.20;99.90
15690;DHT22;7945;48.816;11.506;2023-08-08T00:44:15;13.30;99.90
15690;DHT22;7945;48.816;11.506;2023-08-08T00:46:42;13.20;99.90
15690;DHT22;7945;48.816;11.506;2023-08-08T00:49:09;13.20;99.90
15690;DHT22;7945;48.816;11.506;2023-08-08T00:51:35;13.20;99.90
15690;DHT22;7945;48.816;11.506;2023-08-08T00:54:02;13.30;99.90
15690;DHT22;7945;48.816;11.506;2023-08-08T00:56:30;13.30;99.90
15690;DHT22;7945;48.816;11.506;2023-08-08T00:58:58;13.30;99.90
15690;DHT22;7945;48.816;11.506;2023-08-08T01:01:25;13.40;99.90
15690;DHT22;7945;48.816;11.506;2023-08-08T01:03:52;13.40;99.90
15690;DHT22;7945;48.816;11.506;2023-08-08T01:06:24;13.50;99.90
15690;DHT22;7945;48.816;11.506;2023-08-08T01:08:57;13.50;99.90
15690;DHT22;7945;48.816;11.506;2023-08-08T01:11:25;13.50;99.90
15690;DHT22;7945;48.816;11.506;2023-08-08T01:13:54;13.50;99.90
15690;DHT22;7945;48.816;11.506;2023-08-08T01:16:24;13.50;99.90
15690;DHT22;7945;48.816;11.506;2023-08-08T01:18:52;13.50;99.90
15690;DHT22;7945;48.816;11.506;2023-08-08T01:21:19;13.60;99.90
15690;DHT22;7945;48.816;11.506;2023-08-08T01:23:52;13.60;99.90
15690;DHT22;7945;48.816;11.506;2023-08-08T01:26:21;13.60;99.90
15690;DHT22;7945;48.816;11.506;2023-08-08T01:28:49;13.60;99.90
15690;DHT22;7945;48.816;11.506;2023-08-08T01:31:18;13.60;99.90
15690;DHT22;7945;48.816;11.506;2023-08-08T01:33:45;13.70;99.90
15690;DHT22;7945;48.816;11.506;2023-08-08T01:36:15;13.70;99.90
15690;DHT22;7945;48.816;11.506;2023-08-08T01:38:47;13.70;99.90
15690;DHT22;7945;48.816;11.506;2023-08-08T01:41:15;13.70;99.90
15690;DHT22;7945;48.816;11.506;2023-08-08T01:43:45;13.70;99.90
15690;DHT22;7945;48.816;11.506;2023-08-08T01:46:12;13.70;99.90
15690;DHT22;7945;48.816;11.506;2023-08-08T01:48:39;13.70;99.90
15690;DHT22;7945;48.816;11.506;2023-08-08T01:51:06;13.70;99.90
15690;DHT22;7945;48.816;11.506;2023-08-08T01:53:33;13.70;99.90
15690;DHT22;7945;48.816;11.506;2023-08-08T01:55:59;13.80;99.90
15690;DHT22;7945;48.816;11.506;2023-08-08T01:58:28;13.80;99.90
15690;DHT22;7945;48.816;11.506;2023-08-08T02:00:56;13.80;99.90
15690;DHT22;7945;48.816;11.506;2023-08-08T02:03:23;14.00;99.90
15690;DHT22;7945;48.816;11.506;2023-08-08T02:05:50;13.80;99.90
15690;DHT22;7945;48.816;11.506;2023-08-08T02:08:17;13.80;99.90
15690;DHT22;7945;48.816;11.506;2023-08-08T02:10:43;13.80;99.90
15690;DHT22;7945;48.816;11.506;2023-08-08T02:13:10;13.90;99.90
15690;DHT22;7945;48.816;11.506;2023-08-08T02:15:37;13.90;99.90
15690;DHT22;7945;48.816;11.506;2023-08-08T02:18:05;13.90;99.90
15690;DHT22;7945;48.816;11.506;2023-08-08T02:20:34;14.00;99.90
15690;DHT22;7945;48.816;11.506;2023-08-08T02:23:01;14.00;99.90
15690;DHT22;7945;48.816;11.506;2023-08-08T02:25:28;14.00;99.90
15690;DHT22;7945;48.816;11.506;2023-08-08T02:27:56;14.10;99.90
15690;DHT22;7945;48.816;11.506;2023-08-08T02:30:23;14.10;99.90
15690;DHT22;7945;48.816;11.506;2023-08-08T02:32:49;14.00;99.90
15690;DHT22;7945;48.816;11.506;2023-08-08T02:35:18;14.00;99.90
15690;DHT22;7945;48.816;11.506;2023-08-08T02:37:44;14.10;99.90
15690;DHT22;7945;48.816;11.506;2023-08-08T02:40:11;14.10;99.90
15690;DHT22;7945;48.816;11.506;2023-08-08T02:42:38;14.10;99.90
15690;DHT22;7945;48.816;11.506;2023-08-08T02:45:06;14.10;99.90
15690;DHT22;7945;48.816;11.506;2023-08-08T02:47:33;14.10;99.90
15690;DHT22;7945;48.816;11.506;2023-08-08T02:50:00;14.20;99.90
15690;DHT22;7945;48.816;11.506;2023-08-08T02:52:28;14.00;99.90
15690;DHT22;7945;48.816;11.506;2023-08-08T02:54:55;14.00;99.90
15690;DHT22;7945;48.816;11.506;2023-08-08T02:57:21;14.00;99.90
15690;DHT22;7945;48.816;11.506;2023-08-08T02:59:48;13.80;99.90
15690;DHT22;7945;48.816;11.506;2023-08-08T03:02:15;13.80;99.90
15690;DHT22;7945;48.816;11.506;2023-08-08T03:04:42;13.80;99.90
15690;DHT22;7945;48.816;11.506;2023-08-08T03:07:08;13.80;99.90
15690;DHT22;7945;48.816;11.506;2023-08-08T03:09:37;13.80;99.90
15690;DHT22;7945;48.816;11.506;2023-08-08T03:12:05;13.80;99.90
15690;DHT22;7945;48.816;11.506;2023-08-08T03:14:31;13.70;99.90
15690;DHT22;7945;48.816;11.506;2023-08-08T03:16:59;13.70;99.90
15690;DHT22;7945;48.816;11.506;2023-08-08T03:19:26;13.70;99.90
15690;DHT22;7945;48.816;11.506;2023-08-08T03:21:53;13.70;99.90
15690;DHT22;7945;48.816;11.506;2023-08-08T03:24:19;13.70;99.90
15690;DHT22;7945;48.816;11.506;2023-08-08T03:26:47;14.00;99.90
15690;DHT22;7945;48.816;11.506;2023-08-08T03:29:14;14.10;99.90
15690;DHT22;7945;48.816;11.506;2023-08-08T03:31:41;14.00;99.90
15690;DHT22;7945;48.816;11.506;2023-08-08T03:34:08;14.00;99.90
15690;DHT22;7945;48.816;11.506;2023-08-08T03:36:34;13.90;99.90
15690;DHT22;7945;48.816;11.506;2023-08-08T03:39:01;13.90;99.90
15690;DHT22;7945;48.816;11.506;2023-08-08T03:41:29;13.90;99.90
15690;DHT22;7945;48.816;11.506;2023-08-08T03:43:57;13.90;99.90
15690;DHT22;7945;48.816;11.506;2023-08-08T03:46:24;13.90;99.90
15690;DHT22;7945;48.816;11.506;2023-08-08T03:48:50;13.90;99.90
15690;DHT22;7945;48.816;11.506;2023-08-08T03:51:17;13.90;99.90
15690;DHT22;7945;48.816;11.506;2023-08-08T03:53:44;13.90;99.90
15690;DHT22;7945;48.816;11.506;2023-08-08T03:56:11;13.90;99.90
15690;DHT22;7945;48.816;11.506;2023-08-08T03:58:38;13.90;99.90
15690;DHT22;7945;48.816;11.506;2023-08-08T04:01:06;13.90;99.90
15690;DHT22;7945;48.816;11.506;2023-08-08T04:03:32;13.90;99.90
15690;DHT22;7945;48.816;11.506;2023-08-08T04:05:59;13.90;99.90
15690;DHT22;7945;48.816;11.506;2023-08-08T04:08:26;13.80;99.90
15690;DHT22;7945;48.816;11.506;2023-08-08T04:10:53;14.00;99.90
15690;DHT22;7945;48.816;11.506;2023-08-08T04:13:20;13.90;99.90
15690;DHT22;7945;48.816;11.506;2023-08-08T04:15:46;13.90;99.90
15690;DHT22;7945;48.816;11.506;2023-08-08T04:18:15;13.80;99.90
15690;DHT22;7945;48.816;11.506;2023-08-08T04:20:41;13.90;99.90
15690;DHT22;7945;48.816;11.506;2023-08-08T04:23:08;13.90;99.90
15690;DHT22;7945;48.816;11.506;2023-08-08T04:25:35;13.90;99.90
15690;DHT22;7945;48.816;11.506;2023-08-08T04:28:02;13.90;99.90
15690;DHT22;7945;48.816;11.506;2023-08-08T04:30:29;13.90;99.90
15690;DHT22;7945;48.816;11.506;2023-08-08T04:32:55;13.90;99.90
15690;DHT22;7945;48.816;11.506;2023-08-08T04:35:23;13.90;99.90
15690;DHT22;7945;48.816;11.506;2023-08-08T04:37:50;13.90;99.90
15690;DHT22;7945;48.816;11.506;2023-08-08T04:40:17;13.90;99.90
15690;DHT22;7945;48.816;11.506;2023-08-08T04:42:44;14.00;99.90
15690;DHT22;7945;48.816;11.506;2023-08-08T04:45:11;14.00;99.90
15690;DHT22;7945;48.816;11.506;2023-08-08T04:47:38;14.00;99.90
15690;DHT22;7945;48.816;11.506;2023-08-08T04:50:05;14.00;99.90
15690;DHT22;7945;48.816;11.506;2023-08-08T04:52:33;14.10;99.90
15690;DHT22;7945;48.816;11.506;2023-08-08T04:55:00;14.10;99.90
15690;DHT22;7945;48.816;11.506;2023-08-08T04:57:27;14.20;99.90
15690;DHT22;7945;48.816;11.506;2023-08-08T04:59:54;14.20;99.90
15690;DHT22;7945;48.816;11.506;2023-08-08T05:02:20;14.30;99.90
15690;DHT22;7945;48.816;11.506;2023-08-08T05:04:47;14.30;99.90
15690;DHT22;7945;48.816;11.506;2023-08-08T05:07:15;14.30;99.90
15690;DHT22;7945;48.816;11.506;2023-08-08T05:09:43;14.30;99.90
15690;DHT22;7945;48.816;11.506;2023-08-08T05:12:10;14.40;99.90
15690;DHT22;7945;48.816;11.506;2023-08-08T05:14:37;14.30;99.90
15690;DHT22;7945;48.816;11.506;2023-08-08T05:17:04;14.40;99.90
15690;DHT22;7945;48.816;11.506;2023-08-08T05:19:31;14.40;99.90
15690;DHT22;7945;48.816;11.506;2023-08-08T05:21:57;14.50;99.90
15690;DHT22;7945;48.816;11.506;2023-08-08T05:24:24;14.50;99.90
15690;DHT22;7945;48.816;11.506;2023-08-08T05:26:52;14.50;99.90
15690;DHT22;7945;48.816;11.506;2023-08-08T05:29:19;14.50;99.90
15690;DHT22;7945;48.816;11.506;2023-08-08T05:31:46;14.60;99.90
15690;DHT22;7945;48.816;11.506;2023-08-08T05:34:13;14.60;99.90
15690;DHT22;7945;48.816;11.506;2023-08-08T05:36:40;14.70;99.90
15690;DHT22;7945;48.816;11.506;2023-08-08T05:39:07;14.70;99.90
15690;DHT22;7945;48.816;11.506;2023-08-08T05:41:35;14.70;99.90
15690;DHT22;7945;48.816;11.506;2023-08-08T05:44:03;14.70;99.90
15690;DHT22;7945;48.816;11.506;2023-08-08T05:46:30;14.70;99.90
15690;DHT22;7945;48.816;11.506;2023-08-08T05:48:56;14.90;99.90
15690;DHT22;7945;48.816;11.506;2023-08-08T05:51:23;15.20;99.90
15690;DHT22;7945;48.816;11.506;2023-08-08T05:53:50;15.40;99.90
15690;DHT22;7945;48.816;11.506;2023-08-08T05:56:17;15.60;99.90
15690;DHT22;7945;48.816;11.506;2023-08-08T05:58:43;15.80;99.90
15690;DHT22;7945;48.816;11.506;2023-08-08T06:01:11;16.20;99.90
15690;DHT22;7945;48.816;11.506;2023-08-08T06:03:38;16.70;99.90
15690;DHT22;7945;48.816;11.506;2023-08-08T06:06:05;17.40;99.90
15690;DHT22;7945;48.816;11.506;2023-08-08T06:08:32;18.00;99.90
15690;DHT22;7945;48.816;11.506;2023-08-08T06:10:59;18.50;99.90
15690;DHT22;7945;48.816;11.506;2023-08-08T06:15:39;19.70;99.00
15690;DHT22;7945;48.816;11.506;2023-08-08T06:18:06;18.30;99.90
15690;DHT22;7945;48.816;11.506;2023-08-08T06:20:33;18.20;99.90
15690;DHT22;7945;48.816;11.506;2023-08-08T06:23:00;18.10;99.90
15690;DHT22;7945;48.816;11.506;2023-08-08T06:25:26;17.90;99.90
15690;DHT22;7945;48.816;11.506;2023-08-08T06:27:53;17.60;99.90
15690;DHT22;7945;48.816;11.506;2023-08-08T06:30:20;17.40;99.90
15690;DHT22;7945;48.816;11.506;2023-08-08T06:32:48;17.30;99.90
15690;DHT22;7945;48.816;11.506;2023-08-08T06:35:15;17.20;99.90
15690;DHT22;7945;48.816;11.506;2023-08-08T06:37:43;17.20;99.90
15690;DHT22;7945;48.816;11.506;2023-08-08T06:40:11;17.10;99.90
15690;DHT22;7945;48.816;11.506;2023-08-08T06:42:38;16.90;99.90
15690;DHT22;7945;48.816;11.506;2023-08-08T06:45:05;16.80;99.90
15690;DHT22;7945;48.816;11.506;2023-08-08T06:47:32;16.80;99.90
15690;DHT22;7945;48.816;11.506;2023-08-08T06:50:00;16.70;99.90
15690;DHT22;7945;48.816;11.506;2023-08-08T06:52:27;16.80;99.90
15690;DHT22;7945;48.816;11.506;2023-08-08T06:54:54;16.80;99.90
15690;DHT22;7945;48.816;11.506;2023-08-08T06:57:21;16.80;99.90
15690;DHT22;7945;48.816;11.506;2023-08-08T06:59:47;16.80;99.90
15690;DHT22;7945;48.816;11.506;2023-08-08T07:02:16;16.70;99.90
15690;DHT22;7945;48.816;11.506;2023-08-08T07:04:43;16.70;99.90
15690;DHT22;7945;48.816;11.506;2023-08-08T07:07:11;16.70;99.90
15690;DHT22;7945;48.816;11.506;2023-08-08T07:09:38;16.70;99.90
15690;DHT22;7945;48.816;11.506;2023-08-08T07:12:05;16.80;99.90
15690;DHT22;7945;48.816;11.506;2023-08-08T07:14:32;16.80;99.90
15690;DHT22;7945;48.816;11.506;2023-08-08T07:16:59;16.90;99.90
15690;DHT22;7945;48.816;11.506;2023-08-08T07:19:27;16.90;99.90
15690;DHT22;7945;48.816;11.506;2023-08-08T07:21:54;17.10;99.90
15690;DHT22;7945;48.816;11.506;2023-08-08T07:24:22;17.10;99.90
15690;DHT22;7945;48.816;11.506;2023-08-08T07:26:54;17.20;99.90
15690;DHT22;7945;48.816;11.506;2023-08-08T07:29:20;17.20;99.90
15690;DHT22;7945;48.816;11.506;2023-08-08T07:31:47;17.20;99.90
15690;DHT22;7945;48.816;11.506;2023-08-08T07:34:14;17.10;99.90
15690;DHT22;7945;48.816;11.506;2023-08-08T07:36:41;17.00;99.90
15690;DHT22;7945;48.816;11.506;2023-08-08T07:39:07;17.00;99.90
15690;DHT22;7945;48.816;11.506;2023-08-08T07:41:36;17.00;99.90
15690;DHT22;7945;48.816;11.506;2023-08-08T07:44:03;17.00;99.90
15690;DHT22;7945;48.816;11.506;2023-08-08T07:46:30;17.00;99.90
15690;DHT22;7945;48.816;11.506;2023-08-08T07:48:57;17.00;99.90
15690;DHT22;7945;48.816;11.506;2023-08-08T07:51:24;17.00;99.90
15690;DHT22;7945;48.816;11.506;2023-08-08T07:53:51;17.10;99.90
15690;DHT22;7945;48.816;11.506;2023-08-08T07:56:18;17.10;99.90
15690;DHT22;7945;48.816;11.506;2023-08-08T07:58:46;17.20;99.90
15690;DHT22;7945;48.816;11.506;2023-08-08T08:01:13;17.30;99.90
15690;DHT22;7945;48.816;11.506;2023-08-08T08:03:40;17.50;99.90
15690;DHT22;7945;48.816;11.506;2023-08-08T08:06:07;17.50;99.90
15690;DHT22;7945;48.816;11.506;2023-08-08T08:08:34;17.60;99.90
15690;DHT22;7945;48.816;11.506;2023-08-08T08:11:01;17.60;99.90
15690;DHT22;7945;48.816;11.506;2023-08-08T08:13:28;17.60;99.90
15690;DHT22;7945;48.816;11.506;2023-08-08T08:15:56;17.70;99.90
15690;DHT22;7945;48.816;11.506;2023-08-08T08:18:23;17.70;99.90
15690;DHT22;7945;48.816;11.506;2023-08-08T08:20:50;17.80;99.90
15690;DHT22;7945;48.816;11.506;2023-08-08T08:23:17;17.80;99.90
15690;DHT22;7945;48.816;11.506;2023-08-08T08:25:43;17.80;99.90
15690;DHT22;7945;48.816;11.506;2023-08-08T08:28:10;17.80;99.90
15690;DHT22;7945;48.816;11.506;2023-08-08T08:30:37;17.90;99.90
15690;DHT22;7945;48.816;11.506;2023-08-08T08:33:05;17.90;99.80
15690;DHT22;7945;48.816;11.506;2023-08-08T08:35:33;18.00;99.60
15690;DHT22;7945;48.816;11.506;2023-08-08T08:38:00;18.00;99.20
15690;DHT22;7945;48.816;11.506;2023-08-08T08:40:27;18.10;99.10
15690;DHT22;7945;48.816;11.506;2023-08-08T08:42:54;18.10;98.90
15690;DHT22;7945;48.816;11.506;2023-08-08T08:45:22;18.10;98.90
15690;DHT22;7945;48.816;11.506;2023-08-08T08:47:49;18.10;98.70
15690;DHT22;7945;48.816;11.506;2023-08-08T08:50:22;18.10;98.60
15690;DHT22;7945;48.816;11.506;2023-08-08T08:52:49;18.20;98.30
15690;DHT22;7945;48.816;11.506;2023-08-08T08:55:17;18.10;98.30
15690;DHT22;7945;48.816;11.506;2023-08-08T08:57:44;18.10;98.10
15690;DHT22;7945;48.816;11.506;2023-08-08T09:00:12;18.10;98.20
15690;DHT22;7945;48.816;11.506;2023-08-08T09:02:39;18.20;98.20
15690;DHT22;7945;48.816;11.506;2023-08-08T09:05:07;18.30;98.10
15690;DHT22;7945;48.816;11.506;2023-08-08T09:07:35;18.40;98.00
15690;DHT22;7945;48.816;11.506;2023-08-08T09:10:03;18.40;97.80
15690;DHT22;7945;48.816;11.506;2023-08-08T09:12:30;18.60;97.90
15690;DHT22;7945;48.816;11.506;2023-08-08T09:14:58;18.60;97.90
15690;DHT22;7945;48.816;11.506;2023-08-08T09:17:25;18.70;97.90
15690;DHT22;7945;48.816;11.506;2023-08-08T09:19:53;18.80;97.90
15690;DHT22;7945;48.816;11.506;2023-08-08T09:22:20;18.90;97.50
15690;DHT22;7945;48.816;11.506;2023-08-08T09:24:48;18.90;97.10
15690;DHT22;7945;48.816;11.506;2023-08-08T09:27:15;18.90;97.10
15690;DHT22;7945;48.816;11.506;2023-08-08T09:29:42;18.90;97.30
15690;DHT22;7945;48.816;11.506;2023-08-08T09:32:09;18.90;97.10
15690;DHT22;7945;48.816;11.506;2023-08-08T09:34:37;19.00;96.80
15690;DHT22;7945;48.816;11.506;2023-08-08T09:37:06;19.00;96.50
15690;DHT22;7945;48.816;11.506;2023-08-08T09:39:32;19.00;96.60
15690;DHT22;7945;48.816;11.506;2023-08-08T09:42:03;19.10;96.50
15690;DHT22;7945;48.816;11.506;2023-08-08T09:44:30;19.20;96.10
15690;DHT22;7945;48.816;11.506;2023-08-08T09:47:00;19.30;96.20
15690;DHT22;7945;48.816;11.506;2023-08-08T09:49:27;19.30;96.20
15690;DHT22;7945;48.816;11.506;2023-08-08T09:51:55;19.40;96.10
15690;DHT22;7945;48.816;11.506;2023-08-08T09:54:23;19.30;95.90
15690;DHT22;7945;48.816;11.506;2023-08-08T09:56:50;19.30;95.70
15690;DHT22;7945;48.816;11.506;2023-08-08T09:59:19;19.40;95.80
15690;DHT22;7945;48.816;11.506;2023-08-08T10:01:47;19.50;95.70
15690;DHT22;7945;48.816;11.506;2023-08-08T10:04:14;19.60;95.70
15690;DHT22;7945;48.816;11.506;2023-08-08T10:06:41;19.80;95.60
15690;DHT22;7945;48.816;11.506;2023-08-08T10:09:08;19.90;95.30
15690;DHT22;7945;48.816;11.506;2023-08-08T10:11:36;20.00;95.20
15690;DHT22;7945;48.816;11.506;2023-08-08T10:14:03;20.10;94.90
15690;DHT22;7945;48.816;11.506;2023-08-08T10:16:33;20.10;94.90
15690;DHT22;7945;48.816;11.506;2023-08-08T10:19:03;20.20;94.90
15690;DHT22;7945;48.816;11.506;2023-08-08T10:21:33;20.30;94.30
15690;DHT22;7945;48.816;11.506;2023-08-08T10:24:04;20.30;94.40
15690;DHT22;7945;48.816;11.506;2023-08-08T10:26:31;20.30;94.20
15690;DHT22;7945;48.816;11.506;2023-08-08T10:28:59;20.30;94.10
15690;DHT22;7945;48.816;11.506;2023-08-08T10:31:26;20.40;94.10
15690;DHT22;7945;48.816;11.506;2023-08-08T10:34:03;20.60;93.90
15690;DHT22;7945;48.816;11.506;2023-08-08T10:36:52;20.50;93.70
15690;DHT22;7945;48.816;11.506;2023-08-08T10:39:20;20.50;94.30
15690;DHT22;7945;48.816;11.506;2023-08-08T10:41:48;20.50;94.00
15690;DHT22;7945;48.816;11.506;2023-08-08T10:44:22;20.60;93.80
15690;DHT22;7945;48.816;11.506;2023-08-08T10:46:51;20.60;93.40
15690;DHT22;7945;48.816;11.506;2023-08-08T10:49:19;20.50;94.00
15690;DHT22;7945;48.816;11.506;2023-08-08T10:51:48;20.60;93.90
15690;DHT22;7945;48.816;11.506;2023-08-08T10:54:16;20.50;93.90
15690;DHT22;7945;48.816;11.506;2023-08-08T10:56:48;20.50;93.90
15690;DHT22;7945;48.816;11.506;2023-08-08T10:59:16;20.50;94.00
15690;DHT22;7945;48.816;11.506;2023-08-08T11:01:46;20.30;94.20
15690;DHT22;7945;48.816;11.506;2023-08-08T11:04:13;20.20;94.20
15690;DHT22;7945;48.816;11.506;2023-08-08T11:06:42;20.20;94.20
15690;DHT22;7945;48.816;11.506;2023-08-08T11:09:08;20.20;94.10
15690;DHT22;7945;48.816;11.506;2023-08-08T11:11:38;20.30;94.10
15690;DHT22;7945;48.816;11.506;2023-08-08T11:14:10;20.50;93.90
15690;DHT22;7945;48.816;11.506;2023-08-08T11:16:37;20.60;93.60
15690;DHT22;7945;48.816;11.506;2023-08-08T11:19:04;20.60;93.20
15690;DHT22;7945;48.816;11.506;2023-08-08T11:21:33;20.70;93.10
15690;DHT22;7945;48.816;11.506;2023-08-08T11:24:02;20.80;92.80
15690;DHT22;7945;48.816;11.506;2023-08-08T11:26:29;20.80;92.80
15690;DHT22;7945;48.816;11.506;2023-08-08T11:28:58;20.80;92.60
15690;DHT22;7945;48.816;11.506;2023-08-08T11:31:24;20.80;92.50
15690;DHT22;7945;48.816;11.506;2023-08-08T11:33:52;20.90;92.50
15690;DHT22;7945;48.816;11.506;2023-08-08T11:36:20;20.80;92.40
15690;DHT22;7945;48.816;11.506;2023-08-08T11:38:48;20.90;92.60
15690;DHT22;7945;48.816;11.506;2023-08-08T11:41:19;21.00;92.30
15690;DHT22;7945;48.816;11.506;2023-08-08T11:43:48;21.20;91.30
15690;DHT22;7945;48.816;11.506;2023-08-08T11:46:16;21.20;91.10
15690;DHT22;7945;48.816;11.506;2023-08-08T11:48:46;21.40;91.00
15690;DHT22;7945;48.816;11.506;2023-08-08T11:51:15;21.40;90.70
15690;DHT22;7945;48.816;11.506;2023-08-08T11:53:48;21.60;90.80
15690;DHT22;7945;48.816;11.506;2023-08-08T11:56:18;21.70;89.90
15690;DHT22;7945;48.816;11.506;2023-08-08T11:58:46;21.70;89.70
15690;DHT22;7945;48.816;11.506;2023-08-08T12:01:13;21.60;89.40
15690;DHT22;7945;48.816;11.506;2023-08-08T12:03:40;21.60;88.80
15690;DHT22;7945;48.816;11.506;2023-08-08T12:06:14;21.70;87.50
15690;DHT22;7945;48.816;11.506;2023-08-08T12:08:41;21.70;85.30
15690;DHT22;7945;48.816;11.506;2023-08-08T12:11:09;22.10;85.80
15690;DHT22;7945;48.816;11.506;2023-08-08T12:13:39;21.90;84.70
15690;DHT22;7945;48.816;11.506;2023-08-08T12:16:08;21.90;84.10
15690;DHT22;7945;48.816;11.506;2023-08-08T12:18:35;22.00;84.30
15690;DHT22;7945;48.816;11.506;2023-08-08T12:21:03;22.00;82.40
15690;DHT22;7945;48.816;11.506;2023-08-08T12:23:30;22.10;82.30
15690;DHT22;7945;48.816;11.506;2023-08-08T12:25:58;22.10;81.30
15690;DHT22;7945;48.816;11.506;2023-08-08T12:28:25;22.10;80.70
15690;DHT22;7945;48.816;11.506;2023-08-08T12:30:53;22.10;80.40
15690;DHT22;7945;48.816;11.506;2023-08-08T12:33:20;22.00;81.30
15690;DHT22;7945;48.816;11.506;2023-08-08T12:35:47;22.00;82.40
15690;DHT22;7945;48.816;11.506;2023-08-08T12:38:14;22.00;82.00
15690;DHT22;7945;48.816;11.506;2023-08-08T12:40:41;22.00;81.90
15690;DHT22;7945;48.816;11.506;2023-08-08T12:43:10;21.90;82.20
15690;DHT22;7945;48.816;11.506;2023-08-08T12:45:38;21.90;81.70
15690;DHT22;7945;48.816;11.506;2023-08-08T12:48:07;22.00;81.20
15690;DHT22;7945;48.816;11.506;2023-08-08T12:50:33;22.10;81.20
15690;DHT22;7945;48.816;11.506;2023-08-08T12:53:00;22.20;81.80
15690;DHT22;7945;48.816;11.506;2023-08-08T12:55:27;22.30;81.60
15690;DHT22;7945;48.816;11.506;2023-08-08T12:57:54;22.40;81.20
15690;DHT22;7945;48.816;11.506;2023-08-08T13:00:20;22.40;80.50
15690;DHT22;7945;48.816;11.506;2023-08-08T13:02:47;22.40;80.50
15690;DHT22;7945;48.816;11.506;2023-08-08T13:05:16;22.50;81.20
15690;DHT22;7945;48.816;11.506;2023-08-08T13:07:42;22.50;78.70
15690;DHT22;7945;48.816;11.506;2023-08-08T13:10:09;22.50;78.80
15690;DHT22;7945;48.816;11.506;2023-08-08T13:12:36;22.60;79.10
15690;DHT22;7945;48.816;11.506;2023-08-08T13:15:04;22.70;79.40
15690;DHT22;7945;48.816;11.506;2023-08-08T13:17:31;22.60;77.60
15690;DHT22;7945;48.816;11.506;2023-08-08T13:19:57;22.50;77.70
15690;DHT22;7945;48.816;11.506;2023-08-08T13:22:25;22.40;77.90
15690;DHT22;7945;48.816;11.506;2023-08-08T13:24:52;22.30;78.00
15690;DHT22;7945;48.816;11.506;2023-08-08T13:27:19;22.20;78.20
15690;DHT22;7945;48.816;11.506;2023-08-08T13:29:46;22.20;77.20
15690;DHT22;7945;48.816;11.506;2023-08-08T13:32:13;22.20;76.90
15690;DHT22;7945;48.816;11.506;2023-08-08T13:34:40;22.20;77.50
15690;DHT22;7945;48.816;11.506;2023-08-08T13:37:06;22.30;77.50
15690;DHT22;7945;48.816;11.506;2023-08-08T13:39:34;22.30;78.40
15690;DHT22;7945;48.816;11.506;2023-08-08T13:42:01;22.30;77.80
15690;DHT22;7945;48.816;11.506;2023-08-08T13:44:28;22.20;78.30
15690;DHT22;7945;48.816;11.506;2023-08-08T13:46:56;22.20;78.60
15690;DHT22;7945;48.816;11.506;2023-08-08T13:49:24;22.20;79.00
15690;DHT22;7945;48.816;11.506;2023-08-08T13:51:52;22.30;79.70
15690;DHT22;7945;48.816;11.506;2023-08-08T13:54:19;22.20;79.10
15690;DHT22;7945;48.816;11.506;2023-08-08T13:56:47;22.30;79.70
15690;DHT22;7945;48.816;11.506;2023-08-08T13:59:14;22.30;79.10
15690;DHT22;7945;48.816;11.506;2023-08-08T14:01:41;22.40;79.40
15690;DHT22;7945;48.816;11.506;2023-08-08T14:04:07;22.30;79.00
15690;DHT22;7945;48.816;11.506;2023-08-08T14:06:34;22.30;79.10
15690;DHT22;7945;48.816;11.506;2023-08-08T14:09:01;22.30;78.90
15690;DHT22;7945;48.816;11.506;2023-08-08T14:11:29;22.30;79.20
15690;DHT22;7945;48.816;11.506;2023-08-08T14:13:57;22.40;79.60
15690;DHT22;7945;48.816;11.506;2023-08-08T14:16:24;22.40;79.30
15690;DHT22;7945;48.816;11.506;2023-08-08T14:18:50;22.40;79.20
15690;DHT22;7945;48.816;11.506;2023-08-08T14:21:17;22.30;79.40
15690;DHT22;7945;48.816;11.506;2023-08-08T14:23:44;22.30;79.20
15690;DHT22;7945;48.816;11.506;2023-08-08T14:26:12;22.30;79.20
15690;DHT22;7945;48.816;11.506;2023-08-08T14:28:39;22.30;79.40
15690;DHT22;7945;48.816;11.506;2023-08-08T14:31:07;22.40;80.00
15690;DHT22;7945;48.816;11.506;2023-08-08T14:33:34;22.50;80.10
15690;DHT22;7945;48.816;11.506;2023-08-08T14:36:01;22.50;80.40
15690;DHT22;7945;48.816;11.506;2023-08-08T14:38:27;22.50;79.40
15690;DHT22;7945;48.816;11.506;2023-08-08T14:40:54;22.50;79.30
15690;DHT22;7945;48.816;11.506;2023-08-08T14:43:22;22.50;79.00
15690;DHT22;7945;48.816;11.506;2023-08-08T14:45:49;22.50;79.10
15690;DHT22;7945;48.816;11.506;2023-08-08T14:48:17;22.60;79.30
15690;DHT22;7945;48.816;11.506;2023-08-08T14:50:44;22.60;78.70
15690;DHT22;7945;48.816;11.506;2023-08-08T14:53:11;22.60;78.90
15690;DHT22;7945;48.816;11.506;2023-08-08T14:55:38;22.50;79.00
15690;DHT22;7945;48.816;11.506;2023-08-08T14:58:05;22.50;79.30
15690;DHT22;7945;48.816;11.506;2023-08-08T15:00:32;22.50;79.40
15690;DHT22;7945;48.816;11.506;2023-08-08T15:02:59;22.50;82.00
15690;DHT22;7945;48.816;11.506;2023-08-08T15:05:27;22.20;81.60
15690;DHT22;7945;48.816;11.506;2023-08-08T15:07:55;22.10;80.60
15690;DHT22;7945;48.816;11.506;2023-08-08T15:10:21;22.00;80.80
15690;DHT22;7945;48.816;11.506;2023-08-08T15:12:48;22.20;80.50
15690;DHT22;7945;48.816;11.506;2023-08-08T15:15:15;22.40;80.00
15690;DHT22;7945;48.816;11.506;2023-08-08T15:17:42;22.50;78.60
15690;DHT22;7945;48.816;11.506;2023-08-08T15:20:10;22.50;78.90
15690;DHT22;7945;48.816;11.506;2023-08-08T15:22:38;22.60;78.30
15690;DHT22;7945;48.816;11.506;2023-08-08T15:25:06;22.60;78.50
15690;DHT22;7945;48.816;11.506;2023-08-08T15:27:32;22.60;77.70
15690;DHT22;7945;48.816;11.506;2023-08-08T15:29:59;22.60;77.90
15690;DHT22;7945;48.816;11.506;2023-08-08T15:32:26;22.50;78.70